Grangeville, ID (83530)

10:17 PM PST on January 30, 2015 (GMT -0800)
Elk St. | Change Station
CLOSE
Current Station
Personal Weather Station
Location: Grangeville, ID
Elevation: 3460 ft
Nearby Weather Stations

Elev 3460 ft 45.92 °N, 116.13 °W | Updated 8 seconds ago

Overcast
Overcast
26.9 °F
Feels Like 22 °F
N
4.0
Wind Variable Wind from WSW
Gusts 6.0 mph

Today
High -- | Low -- °F
--% Chance of Precip.
Yesterday
High -- | Low -- °F
Precip. -- in
7:09 AM 4:46 PM
Waxing Gibbous, 87% visible
Pressure 30.25 in
Visibility 0.5 miles
Clouds Overcast 200 ft
Windchill 22 °F
Dew Point 26 °F
Humidity 96%
Rainfall 0.00 in
Snow Depth Not available.
UV 0 out of 12
Pollen 2.10 out of 12
Air Quality Not available.
Flu Activity Not available.
METAR KGIC 310555Z AUTO 00000KT 1/2SM OVC002 M02/M03 A3025 RMK AO1 T10251035 10165 21185

More Conditions Fewer Conditions

Pressure 30.25 in
Visibility 0.5 miles
Clouds Overcast 200 ft
Windchill 22 °F
Dew Point 26 °F
Humidity 96%
Rainfall 0.00 in
Snow Depth Not available.
UV 0 out of 12
Pollen 2.10 out of 12
Air Quality Not available.
Flu Activity Not available.
METAR KGIC 310555Z AUTO 00000KT 1/2SM OVC002 M02/M03 A3025 RMK AO1 T10251035 10165 21185

More Conditions Fewer Conditions

10-Day Weather Forecast

Almanac

Astronomy

Jan. 30, 2015 Rise Set
Actual Time
Civil Twilight
Nautical Twilight
Astronomical Twilight
Moon
Length of Visible Light
Length of Day
Tomorrow will be .
, % of the Moon is Illuminated

Today's Extremes

State Highs State Lows

Community

WunderPhotos

Upload Photos

1,792,013 photos uploaded!

WunderBlogs® & News

Nearby

Air Quality

  Air Quality AQ Index Pollutant
Not available.

Snow Depth

Station Depth Elevation

Earthquake Activity

City Distance Mag. Time & Date
Minimum magnitude displayed is 2.5.

Coastal Water Temperatures

Place Temperature

Nearby Weather Stations